createdAt,value
2018-04-16T00:00:56.994Z,4.30
2018-04-16T00:01:59.103Z,3.90
2018-04-16T00:02:57.459Z,4.50
2018-04-16T00:03:59.604Z,4.30
2018-04-16T00:04:57.828Z,4.30
2018-04-16T00:05:58.093Z,4.40
2018-04-16T00:06:58.255Z,4.20
2018-04-16T00:07:58.472Z,4.50
2018-04-16T00:08:58.676Z,4.00
2018-04-16T00:09:58.896Z,4.40
2018-04-16T00:10:59.108Z,4.40
2018-04-16T00:11:59.319Z,4.40
2018-04-16T00:13:01.111Z,4.40
2018-04-16T00:13:59.702Z,4.30
2018-04-16T00:15:01.617Z,4.40
2018-04-16T00:16:00.073Z,4.40
2018-04-16T00:17:00.274Z,4.30
2018-04-16T00:18:00.491Z,4.70
2018-04-16T00:19:02.613Z,4.30
2018-04-16T00:20:00.944Z,4.50
2018-04-16T00:21:01.168Z,4.40
2018-04-16T00:22:01.383Z,4.50
2018-04-16T00:23:01.602Z,4.40
2018-04-16T00:24:01.844Z,4.60
2018-04-16T00:25:02.029Z,4.30
2018-04-16T00:26:02.238Z,4.50
2018-04-16T00:27:02.447Z,3.90
2018-04-16T00:28:02.659Z,4.10
2018-04-16T00:29:02.888Z,4.20
2018-04-16T00:30:03.105Z,4.40
2018-04-16T00:31:03.323Z,4.00
2018-04-16T00:32:03.548Z,3.80
2018-04-16T00:33:03.747Z,4.00
2018-04-16T00:34:03.965Z,3.80
2018-04-16T00:35:04.184Z,4.00
2018-04-16T00:36:04.386Z,3.90
2018-04-16T00:37:04.608Z,3.80
2018-04-16T00:38:04.828Z,4.20
2018-04-16T00:39:06.057Z,4.40
2018-04-16T00:40:05.162Z,4.30
2018-04-16T00:41:05.405Z,3.70
2018-04-16T00:42:05.495Z,4.00
2018-04-16T00:43:07.601Z,3.70
2018-04-16T00:44:05.931Z,3.90
2018-04-16T00:45:06.141Z,3.70
2018-04-16T00:46:08.115Z,4.30
2018-04-16T00:47:06.571Z,4.30
2018-04-16T00:48:06.772Z,4.00
2018-04-16T00:49:06.989Z,4.00
2018-04-16T00:50:07.198Z,4.10
2018-04-16T00:51:07.405Z,3.90
2018-04-16T00:52:07.619Z,4.30
2018-04-16T00:53:07.880Z,3.90
2018-04-16T00:54:08.048Z,3.70
2018-04-16T00:55:09.673Z,4.30
2018-04-16T00:56:08.400Z,3.90
2018-04-16T00:57:08.524Z,4.00
2018-04-16T00:58:08.723Z,4.10
2018-04-16T00:59:08.945Z,3.90
2018-04-16T01:00:09.151Z,4.20
2018-04-16T01:01:09.361Z,4.00
2018-04-16T01:02:09.583Z,3.80
2018-04-16T01:03:09.798Z,3.70
2018-04-16T01:04:10.001Z,4.10
2018-04-16T01:05:10.220Z,4.10
2018-04-16T01:06:10.426Z,3.80
2018-04-16T01:07:10.643Z,3.90
2018-04-16T01:08:10.879Z,3.90
2018-04-16T01:09:11.062Z,3.70
2018-04-16T01:10:11.292Z,3.80
2018-04-16T01:11:11.516Z,3.80
2018-04-16T01:12:11.721Z,4.00
2018-04-16T01:13:11.939Z,3.90
2018-04-16T01:14:12.158Z,4.00
2018-04-16T01:15:12.367Z,5.60
2018-04-16T01:16:12.600Z,5.10
2018-04-16T01:17:12.800Z,5.00
2018-04-16T01:18:14.608Z,4.70
2018-04-16T01:19:13.189Z,4.50
2018-04-16T01:20:13.403Z,4.90
2018-04-16T01:21:13.623Z,4.90
2018-04-16T01:22:13.840Z,5.20
2018-04-16T01:23:14.059Z,5.40
2018-04-16T01:24:16.109Z,4.80
2018-04-16T01:25:14.439Z,5.10
2018-04-16T01:26:14.658Z,4.80
2018-04-16T01:27:14.883Z,4.60
2018-04-16T01:28:15.095Z,4.50
2018-04-16T01:29:15.327Z,4.50
2018-04-16T01:30:15.543Z,4.50
2018-04-16T01:31:15.755Z,4.50
2018-04-16T01:32:15.975Z,4.70
2018-04-16T01:33:16.184Z,5.10
2018-04-16T01:34:18.107Z,4.40
2018-04-16T01:35:16.579Z,4.40
2018-04-16T01:36:16.785Z,4.90
2018-04-16T01:37:16.995Z,4.30
2018-04-16T01:38:17.218Z,4.80
2018-04-16T01:39:17.426Z,4.40
2018-04-16T01:40:17.642Z,4.50
2018-04-16T01:41:17.858Z,3.30
2018-04-16T01:42:18.066Z,3.10
2018-04-16T01:43:20.109Z,2.60
2018-04-16T01:44:18.439Z,3.00
2018-04-16T01:45:18.653Z,2.70
2018-04-16T01:46:18.891Z,3.10
2018-04-16T01:47:19.131Z,3.00
2018-04-16T01:48:19.331Z,3.10
2018-04-16T01:49:19.537Z,3.10
2018-04-16T01:50:19.752Z,2.90
2018-04-16T01:51:19.974Z,3.10
2018-04-16T01:52:20.175Z,2.90
2018-04-16T01:53:20.396Z,3.30
2018-04-16T01:54:20.610Z,3.30
2018-04-16T01:55:20.832Z,3.90
2018-04-16T01:56:21.051Z,4.50
2018-04-16T01:57:21.271Z,4.30
2018-04-16T01:58:21.483Z,4.40
2018-04-16T01:59:21.697Z,4.50
2018-04-16T02:00:23.607Z,4.50
2018-04-16T02:01:23.611Z,4.50
2018-04-16T02:02:22.210Z,4.10
2018-04-16T02:03:22.414Z,4.60
2018-04-16T02:04:22.629Z,4.50
2018-04-16T02:05:22.855Z,4.70
2018-04-16T02:06:23.069Z,4.70
2018-04-16T02:07:25.113Z,4.80
2018-04-16T02:08:23.457Z,5.40
2018-04-16T02:09:23.663Z,5.20
2018-04-16T02:10:23.888Z,5.80
2018-04-16T02:11:24.091Z,5.70
2018-04-16T02:12:24.317Z,5.80
2018-04-16T02:13:24.529Z,5.30
2018-04-16T02:14:24.739Z,5.30
2018-04-16T02:15:24.957Z,5.30
2018-04-16T02:16:25.182Z,4.80
2018-04-16T02:17:25.394Z,5.30
2018-04-16T02:18:25.604Z,4.70
2018-04-16T02:19:27.614Z,4.00
2018-04-16T02:20:25.988Z,4.00
2018-04-16T02:21:26.225Z,4.00
2018-04-16T02:22:28.107Z,3.70
2018-04-16T02:23:26.433Z,3.90
2018-04-16T02:24:26.666Z,3.80
2018-04-16T02:25:28.614Z,3.60
2018-04-16T02:26:27.086Z,3.90
2018-04-16T02:27:27.306Z,4.00
2018-04-16T02:28:27.537Z,3.70
2018-04-16T02:29:27.743Z,3.50
2018-04-16T02:30:29.635Z,3.90
2018-04-16T02:31:29.609Z,3.80
2018-04-16T02:32:28.220Z,3.70
2018-04-16T02:33:28.314Z,4.80
2018-04-16T02:34:28.519Z,4.80
2018-04-16T02:35:28.746Z,6.10
2018-04-16T02:36:28.967Z,5.80
2018-04-16T02:37:31.123Z,6.40
2018-04-16T02:38:29.320Z,6.20
2018-04-16T02:39:29.534Z,6.60
2018-04-16T02:40:29.752Z,6.10
2018-04-16T02:41:29.962Z,6.00
2018-04-16T02:42:30.189Z,5.60
2018-04-16T02:43:30.400Z,5.10
2018-04-16T02:44:30.651Z,4.70
2018-04-16T02:45:30.834Z,5.00
2018-04-16T02:46:31.066Z,4.70
2018-04-16T02:47:31.301Z,4.50
2018-04-16T02:48:31.515Z,4.90
2018-04-16T02:49:31.734Z,4.60
2018-04-16T02:50:31.948Z,4.50
2018-04-16T02:51:32.170Z,4.40
2018-04-16T02:52:34.126Z,3.90
2018-04-16T02:53:32.583Z,4.20
2018-04-16T02:54:34.623Z,3.90
2018-04-16T02:55:32.954Z,3.80
2018-04-16T02:56:33.164Z,3.80
2018-04-16T02:57:33.394Z,4.30
2018-04-16T02:58:33.603Z,3.90
2018-04-16T02:59:33.812Z,4.40
2018-04-16T03:00:34.028Z,4.40
2018-04-16T03:01:36.120Z,4.10
2018-04-16T03:02:36.109Z,3.70
2018-04-16T03:03:34.568Z,3.70
2018-04-16T03:04:34.794Z,3.40
2018-04-16T03:05:35.010Z,3.70
2018-04-16T03:06:43.110Z,3.80
2018-04-16T03:07:37.110Z,4.00
2018-04-16T03:08:35.573Z,4.30
2018-04-16T03:09:35.777Z,3.50
2018-04-16T03:10:35.990Z,3.80
2018-04-16T03:11:36.206Z,4.00
2018-04-16T03:12:36.414Z,4.10
2018-04-16T03:13:36.636Z,4.20
2018-04-16T03:14:36.845Z,3.90
2018-04-16T03:15:37.065Z,4.50
2018-04-16T03:16:37.289Z,4.10
2018-04-16T03:17:37.505Z,4.20
2018-04-16T03:18:37.719Z,4.30
2018-04-16T03:19:37.963Z,4.00
2018-04-16T03:20:38.138Z,4.30
2018-04-16T03:21:38.355Z,4.00
2018-04-16T03:22:38.601Z,4.10
2018-04-16T03:23:38.793Z,4.00
2018-04-16T03:24:39.023Z,4.20
2018-04-16T03:25:39.304Z,3.90
2018-04-16T03:26:39.446Z,3.80
2018-04-16T03:27:39.650Z,3.90
2018-04-16T03:28:42.627Z,4.10
2018-04-16T03:29:40.082Z,3.70
2018-04-16T03:30:40.302Z,4.00
2018-04-16T03:31:40.519Z,4.00
2018-04-16T03:32:40.732Z,3.90
2018-04-16T03:33:40.944Z,4.20
2018-04-16T03:34:43.118Z,4.60
2018-04-16T03:35:43.123Z,4.20
2018-04-16T03:36:41.464Z,4.70
2018-04-16T03:37:41.677Z,4.40
2018-04-16T03:38:41.902Z,3.60
2018-04-16T03:39:42.112Z,3.20
2018-04-16T03:40:42.338Z,3.20
2018-04-16T03:41:42.543Z,3.20
2018-04-16T03:42:44.615Z,3.20
2018-04-16T03:43:42.983Z,3.40
2018-04-16T03:44:43.180Z,3.30
2018-04-16T03:45:43.386Z,3.50
2018-04-16T03:46:46.121Z,3.40
2018-04-16T03:47:43.834Z,3.50
2018-04-16T03:48:44.076Z,3.50
2018-04-16T03:49:44.253Z,3.90
2018-04-16T03:50:44.478Z,3.50
2018-04-16T03:51:44.688Z,3.90
2018-04-16T03:52:44.901Z,4.90
2018-04-16T03:53:45.127Z,4.90
2018-04-16T03:54:45.363Z,5.00
2018-04-16T03:55:45.560Z,4.90
2018-04-16T03:56:45.787Z,4.90
2018-04-16T03:57:46.000Z,4.40
2018-04-16T03:58:46.219Z,4.10
2018-04-16T03:59:46.437Z,3.80
2018-04-16T04:00:46.646Z,3.70
2018-04-16T04:01:46.860Z,3.40
2018-04-16T04:02:47.114Z,3.50
2018-04-16T04:03:47.283Z,3.70
2018-04-16T04:04:47.505Z,3.40
2018-04-16T04:05:47.716Z,3.60
2018-04-16T04:06:47.919Z,3.40
2018-04-16T04:07:48.136Z,3.30
2018-04-16T04:08:48.352Z,3.70
2018-04-16T04:09:48.565Z,3.60
2018-04-16T04:10:48.783Z,3.70
2018-04-16T04:11:50.633Z,3.80
2018-04-16T04:12:49.228Z,3.90
2018-04-16T04:13:49.429Z,4.40
2018-04-16T04:14:51.617Z,3.70
2018-04-16T04:15:49.823Z,4.00
2018-04-16T04:16:50.050Z,3.60
2018-04-16T04:17:50.257Z,3.60
2018-04-16T04:18:50.497Z,3.40
2018-04-16T04:19:50.689Z,3.40
2018-04-16T04:20:50.908Z,3.20
2018-04-16T04:21:51.138Z,3.40
2018-04-16T04:22:51.344Z,3.60
2018-04-16T04:23:51.565Z,4.00
2018-04-16T04:24:51.787Z,4.00
2018-04-16T04:25:51.999Z,3.80
2018-04-16T04:26:54.124Z,4.30
2018-04-16T04:27:52.338Z,4.20
2018-04-16T04:28:52.560Z,4.60
2018-04-16T04:29:52.777Z,4.90
2018-04-16T04:30:53.006Z,5.50
2018-04-16T04:31:53.212Z,5.90
2018-04-16T04:32:55.115Z,5.90
2018-04-16T04:33:53.576Z,6.20
2018-04-16T04:34:53.785Z,6.50
2018-04-16T04:35:53.991Z,6.40
2018-04-16T04:36:54.197Z,6.50
2018-04-16T04:37:54.404Z,6.60
2018-04-16T04:38:54.626Z,7.20
2018-04-16T04:39:58.619Z,7.60
2018-04-16T04:40:55.102Z,7.40
2018-04-16T04:41:55.298Z,7.20
2018-04-16T04:42:55.520Z,7.50
2018-04-16T04:43:55.741Z,7.70
2018-04-16T04:44:55.942Z,7.10
2018-04-16T04:45:56.161Z,7.50
2018-04-16T04:46:56.382Z,7.90
2018-04-16T04:47:56.581Z,7.50
2018-04-16T04:48:56.798Z,7.20
2018-04-16T04:49:57.020Z,7.60
2018-04-16T04:50:57.218Z,7.30
2018-04-16T04:51:59.123Z,7.50
2018-04-16T04:52:57.612Z,7.30
2018-04-16T04:53:57.793Z,7.60
2018-04-16T04:54:58.021Z,7.30
2018-04-16T04:55:58.236Z,7.50
2018-04-16T04:56:58.438Z,7.70
2018-04-16T04:57:58.652Z,7.40
2018-04-16T04:59:00.628Z,7.30
2018-04-16T04:59:59.092Z,6.80
2018-04-16T05:00:59.319Z,7.30
2018-04-16T05:01:59.531Z,6.90
2018-04-16T05:02:59.740Z,6.20
2018-04-16T05:03:59.962Z,6.00
2018-04-16T05:05:01.806Z,6.00
2018-04-16T05:06:00.400Z,5.70
2018-04-16T05:07:00.609Z,5.80
2018-04-16T05:08:00.820Z,5.90
2018-04-16T05:09:01.025Z,6.40
2018-04-16T05:10:01.233Z,6.20
2018-04-16T05:11:01.454Z,6.20
2018-04-16T05:12:01.665Z,5.70
2018-04-16T05:13:01.884Z,5.40
2018-04-16T05:14:03.614Z,5.90
2018-04-16T05:15:02.318Z,5.90
2018-04-16T05:16:02.539Z,5.30
2018-04-16T05:17:02.761Z,5.20
2018-04-16T05:18:02.976Z,5.60
2018-04-16T05:19:03.189Z,5.70
2018-04-16T05:20:03.445Z,5.20
2018-04-16T05:21:03.532Z,5.20
2018-04-16T05:22:03.763Z,4.30
2018-04-16T05:23:03.975Z,4.30
2018-04-16T05:24:04.190Z,4.60
2018-04-16T05:25:04.435Z,4.50
2018-04-16T05:26:04.617Z,4.90
2018-04-16T05:27:04.822Z,4.70
2018-04-16T05:28:05.036Z,5.80
2018-04-16T05:29:05.282Z,7.80
2018-04-16T05:30:05.467Z,8.20
2018-04-16T05:31:05.683Z,9.10
2018-04-16T05:32:05.893Z,8.90
2018-04-16T05:33:06.116Z,9.40
2018-04-16T05:34:06.345Z,8.70
2018-04-16T05:35:06.553Z,9.00
2018-04-16T05:36:08.622Z,9.50
2018-04-16T05:37:08.621Z,8.70
2018-04-16T05:38:07.087Z,8.60
2018-04-16T05:39:07.309Z,8.00
2018-04-16T05:40:07.517Z,8.90
2018-04-16T05:41:07.745Z,9.40
2018-04-16T05:42:07.952Z,7.80
2018-04-16T05:43:08.159Z,6.40
2018-04-16T05:44:08.379Z,5.50
2018-04-16T05:45:10.121Z,5.90
2018-04-16T05:46:10.650Z,5.60
2018-04-16T05:47:08.853Z,4.90
2018-04-16T05:48:09.064Z,5.00
2018-04-16T05:49:11.145Z,5.00
2018-04-16T05:50:09.486Z,5.20
2018-04-16T05:51:09.726Z,5.10
2018-04-16T05:52:09.926Z,5.00
2018-04-16T05:53:12.631Z,4.90
2018-04-16T05:54:10.346Z,5.00
2018-04-16T05:55:10.568Z,4.40
2018-04-16T05:56:10.776Z,3.70
2018-04-16T05:57:10.992Z,3.50
2018-04-16T05:58:11.206Z,3.90
2018-04-16T05:59:11.417Z,3.90
2018-04-16T06:00:11.621Z,3.90
2018-04-16T06:01:11.840Z,4.00
2018-04-16T06:02:12.049Z,4.10
2018-04-16T06:03:12.265Z,3.80
2018-04-16T06:04:12.473Z,4.00
2018-04-16T06:05:12.698Z,4.20
2018-04-16T06:06:14.628Z,3.90
2018-04-16T06:07:13.090Z,4.60
2018-04-16T06:08:15.123Z,4.50
2018-04-16T06:09:13.476Z,4.70
2018-04-16T06:10:13.686Z,4.50
2018-04-16T06:11:13.903Z,4.80
2018-04-16T06:12:14.108Z,4.70
2018-04-16T06:13:14.320Z,4.80
2018-04-16T06:14:14.540Z,4.90
2018-04-16T06:15:16.623Z,5.00
2018-04-16T06:16:14.952Z,5.00
2018-04-16T06:17:15.173Z,5.20
2018-04-16T06:18:15.378Z,4.80
2018-04-16T06:19:15.587Z,4.80
2018-04-16T06:20:15.804Z,4.60
2018-04-16T06:21:16.013Z,4.60
2018-04-16T06:22:16.237Z,4.80
2018-04-16T06:23:16.446Z,4.20
2018-04-16T06:24:16.661Z,4.40
2018-04-16T06:25:16.918Z,4.20
2018-04-16T06:26:18.620Z,4.80
2018-04-16T06:27:17.393Z,4.40
2018-04-16T06:28:17.547Z,4.40
2018-04-16T06:29:17.757Z,4.80
2018-04-16T06:30:17.978Z,4.80
2018-04-16T06:31:18.184Z,4.60
2018-04-16T06:32:20.123Z,5.00
2018-04-16T06:33:18.590Z,4.50
2018-04-16T06:34:18.828Z,4.70
2018-04-16T06:35:19.012Z,5.10
2018-04-16T06:36:27.133Z,5.50
2018-04-16T06:37:19.442Z,5.70
2018-04-16T06:38:19.661Z,5.30
2018-04-16T06:39:19.876Z,5.50
2018-04-16T06:40:20.093Z,5.60
2018-04-16T06:41:20.318Z,5.60
2018-04-16T06:42:22.161Z,5.20
2018-04-16T06:43:20.719Z,5.00
2018-04-16T06:44:20.936Z,5.50
2018-04-16T06:45:21.148Z,5.70
2018-04-16T06:46:23.128Z,5.50
2018-04-16T06:47:21.607Z,5.60
2018-04-16T06:48:21.824Z,5.10
2018-04-16T06:49:22.035Z,5.50
2018-04-16T06:50:22.245Z,5.50
2018-04-16T06:51:24.134Z,5.70
2018-04-16T06:52:24.130Z,5.40
2018-04-16T06:53:22.733Z,5.40
2018-04-16T06:54:22.945Z,5.10
2018-04-16T06:55:23.192Z,5.00
2018-04-16T06:56:25.305Z,5.00
2018-04-16T06:57:23.523Z,4.80
2018-04-16T06:58:23.752Z,4.40
2018-04-16T06:59:25.624Z,4.20
2018-04-16T07:00:24.219Z,4.00
2018-04-16T07:01:24.459Z,4.20
2018-04-16T07:02:24.671Z,4.70
2018-04-16T07:03:26.623Z,4.40
2018-04-16T07:04:25.093Z,4.10
2018-04-16T07:05:25.326Z,4.20
2018-04-16T07:06:25.531Z,3.50
2018-04-16T07:07:25.743Z,3.70
2018-04-16T07:08:25.958Z,4.00
2018-04-16T07:09:26.170Z,4.40
2018-04-16T07:10:26.388Z,4.00
2018-04-16T07:11:26.615Z,3.50
2018-04-16T07:12:28.181Z,3.50
2018-04-16T07:13:30.805Z,3.60
2018-04-16T07:14:27.142Z,3.60
2018-04-16T07:15:27.375Z,3.80
2018-04-16T07:16:27.585Z,3.80
2018-04-16T07:17:27.805Z,3.90
2018-04-16T07:18:29.626Z,2.90
2018-04-16T07:19:28.226Z,3.80
2018-04-16T07:20:28.443Z,3.40
2018-04-16T07:21:28.662Z,3.80
2018-04-16T07:22:28.874Z,3.90
2018-04-16T07:23:29.103Z,3.90
2018-04-16T07:24:29.313Z,3.60
2018-04-16T07:25:29.518Z,3.10
2018-04-16T07:26:29.761Z,3.40
2018-04-16T07:27:29.972Z,3.40
2018-04-16T07:28:30.220Z,3.00
2018-04-16T07:29:30.309Z,3.30
2018-04-16T07:30:30.519Z,2.80
2018-04-16T07:31:30.744Z,3.00
2018-04-16T07:32:30.969Z,3.00
2018-04-16T07:33:31.185Z,3.00
2018-04-16T07:34:31.419Z,3.70
2018-04-16T07:35:31.631Z,3.90
2018-04-16T07:36:31.841Z,3.90
2018-04-16T07:37:32.063Z,4.30
2018-04-16T07:38:32.271Z,4.20
2018-04-16T07:39:34.125Z,4.80
2018-04-16T07:40:32.720Z,4.00
2018-04-16T07:41:32.946Z,3.90
2018-04-16T07:42:33.167Z,3.80
2018-04-16T07:43:33.385Z,3.60
2018-04-16T07:44:33.597Z,3.80
2018-04-16T07:45:33.828Z,3.80
2018-04-16T07:46:34.035Z,3.70
2018-04-16T07:47:34.266Z,3.90
2018-04-16T07:48:34.483Z,4.00
2018-04-16T07:49:34.701Z,3.60
2018-04-16T07:50:34.930Z,3.00
2018-04-16T07:51:35.167Z,3.10
2018-04-16T07:52:35.543Z,3.40
2018-04-16T07:53:35.525Z,3.10
2018-04-16T07:54:35.735Z,3.10
2018-04-16T07:55:37.634Z,3.60
2018-04-16T07:56:36.099Z,3.40
2018-04-16T07:57:36.337Z,3.20
2018-04-16T07:58:36.548Z,3.20
2018-04-16T07:59:36.767Z,3.10
2018-04-16T08:00:36.998Z,3.10
2018-04-16T08:01:37.222Z,2.90
2018-04-16T08:02:40.137Z,2.70
2018-04-16T08:03:37.615Z,2.70
2018-04-16T08:04:38.882Z,2.70
2018-04-16T08:05:38.016Z,3.10
2018-04-16T08:06:38.220Z,2.70
2018-04-16T08:07:38.411Z,2.80
2018-04-16T08:08:41.146Z,2.70
2018-04-16T08:09:38.865Z,2.70
2018-04-16T08:10:41.629Z,2.90
2018-04-16T08:11:39.239Z,2.70
2018-04-16T08:12:39.454Z,2.60
2018-04-16T08:13:39.701Z,2.80
2018-04-16T08:14:41.629Z,3.00
2018-04-16T08:15:40.110Z,2.80
2018-04-16T08:16:40.335Z,3.00
2018-04-16T08:17:40.554Z,2.90
2018-04-16T08:18:40.783Z,2.90
2018-04-16T08:19:40.998Z,2.80
2018-04-16T08:20:41.205Z,2.30
2018-04-16T08:21:41.439Z,2.60
2018-04-16T08:22:41.663Z,2.50
2018-04-16T08:23:41.903Z,2.30
2018-04-16T08:24:42.132Z,2.40
2018-04-16T08:25:44.135Z,2.10
2018-04-16T08:26:42.615Z,2.30
2018-04-16T08:27:42.854Z,2.30
2018-04-16T08:28:44.631Z,2.30
2018-04-16T08:29:43.228Z,2.90
2018-04-16T08:30:43.485Z,2.50
2018-04-16T08:31:43.690Z,2.20
2018-04-16T08:32:45.632Z,2.40
2018-04-16T08:33:45.639Z,2.50
2018-04-16T08:34:49.380Z,2.40
2018-04-16T08:35:46.135Z,2.40
2018-04-16T08:36:46.673Z,2.30
2018-04-16T08:37:44.901Z,2.20
2018-04-16T08:38:45.121Z,2.30
2018-04-16T08:39:45.366Z,2.10
2018-04-16T08:40:45.489Z,2.20
2018-04-16T08:41:45.719Z,2.10
2018-04-16T08:42:47.631Z,2.30
2018-04-16T08:43:46.101Z,2.10
2018-04-16T08:44:49.135Z,2.00
2018-04-16T08:45:46.501Z,2.20
2018-04-16T08:46:46.701Z,2.50
2018-04-16T08:47:50.629Z,2.30
2018-04-16T08:48:47.113Z,2.40
2018-04-16T08:49:48.349Z,2.40
2018-04-16T08:50:49.199Z,2.30
2018-04-16T08:51:47.697Z,2.20
2018-04-16T08:52:49.632Z,2.20
2018-04-16T08:53:49.065Z,2.60
2018-04-16T08:54:48.280Z,2.20
2018-04-16T08:55:48.503Z,2.30
2018-04-16T08:56:48.724Z,2.20
2018-04-16T08:57:50.641Z,2.40
2018-04-16T08:58:49.102Z,2.50
2018-04-16T08:59:49.319Z,2.20
2018-04-16T09:00:53.146Z,2.30
2018-04-16T09:01:54.827Z,2.50
2018-04-16T09:02:50.977Z,2.40
2018-04-16T09:03:50.106Z,2.20
2018-04-16T09:04:53.636Z,2.30
2018-04-16T09:05:56.153Z,2.30
2018-04-16T09:06:50.787Z,2.30
2018-04-16T09:07:51.044Z,2.40
2018-04-16T09:08:52.656Z,2.20
2018-04-16T09:09:51.296Z,2.30
2018-04-16T09:10:52.488Z,2.30
2018-04-16T09:11:51.700Z,2.00
2018-04-16T09:12:51.911Z,2.50
2018-04-16T09:13:52.129Z,2.40
2018-04-16T09:14:52.488Z,2.30
2018-04-16T09:15:52.543Z,2.20
2018-04-16T09:16:52.764Z,2.50
2018-04-16T09:17:54.640Z,2.20
2018-04-16T09:18:54.661Z,2.10
2018-04-16T09:19:57.188Z,2.40
2018-04-16T09:20:57.161Z,2.50
2018-04-16T09:21:55.153Z,2.40
2018-04-16T09:22:55.334Z,2.60
2018-04-16T09:23:54.918Z,2.30
2018-04-16T09:24:54.143Z,2.30
2018-04-16T09:25:57.185Z,2.50
2018-04-16T09:26:58.207Z,2.60
2018-04-16T09:27:54.673Z,2.30
2018-04-16T09:28:54.887Z,2.30
2018-04-16T09:29:58.652Z,2.50
2018-04-16T09:30:55.424Z,2.40
2018-04-16T09:31:58.150Z,2.40
2018-04-16T09:32:55.619Z,2.40
2018-04-16T09:33:55.845Z,2.40
2018-04-16T09:34:57.680Z,2.60
2018-04-16T09:35:56.209Z,2.90
2018-04-16T09:36:56.445Z,3.50
2018-04-16T09:37:56.646Z,3.90
2018-04-16T09:38:56.858Z,3.70
2018-04-16T09:39:58.287Z,4.00
2018-04-16T09:40:57.313Z,4.30
2018-04-16T09:41:57.492Z,4.20
2018-04-16T09:43:00.580Z,3.50
2018-04-16T09:43:59.640Z,3.30
2018-04-16T09:44:59.644Z,3.20
2018-04-16T09:45:58.245Z,3.40
2018-04-16T09:47:00.140Z,4.00
2018-04-16T09:47:58.929Z,3.70
2018-04-16T09:48:58.804Z,3.50
2018-04-16T09:49:59.023Z,3.60
2018-04-16T09:51:02.153Z,3.40
2018-04-16T09:51:59.491Z,3.40
2018-04-16T09:53:05.645Z,3.80
2018-04-16T09:53:59.859Z,4.10
2018-04-16T09:55:00.088Z,4.30
2018-04-16T09:56:00.336Z,4.50
2018-04-16T09:57:04.180Z,4.20
2018-04-16T09:58:02.645Z,4.20
2018-04-16T09:59:00.904Z,4.40
2018-04-16T10:00:00.980Z,4.60
2018-04-16T10:01:04.150Z,5.10
2018-04-16T10:02:01.478Z,4.90
2018-04-16T10:03:01.519Z,5.20
2018-04-16T10:04:01.743Z,4.60
2018-04-16T10:05:04.645Z,4.80
2018-04-16T10:06:03.694Z,5.10
2018-04-16T10:07:04.142Z,4.40
2018-04-16T10:08:02.354Z,4.60
2018-04-16T10:09:02.585Z,4.60
2018-04-16T10:10:02.802Z,5.10
2018-04-16T10:11:03.020Z,4.80
2018-04-16T10:12:03.259Z,4.80
2018-04-16T10:13:03.480Z,4.40
2018-04-16T10:14:03.703Z,4.40
2018-04-16T10:15:03.937Z,4.30
2018-04-16T10:16:04.052Z,4.30
2018-04-16T10:17:04.276Z,4.20
2018-04-16T10:18:04.535Z,4.20
2018-04-16T10:19:04.705Z,4.10
2018-04-16T10:20:04.928Z,4.80
2018-04-16T10:21:05.149Z,4.90
2018-04-16T10:22:05.396Z,4.50
2018-04-16T10:23:05.637Z,4.50
2018-04-16T10:24:05.827Z,4.80
2018-04-16T10:25:07.650Z,4.90
2018-04-16T10:26:06.274Z,4.90
2018-04-16T10:27:08.149Z,4.70
2018-04-16T10:28:08.145Z,5.00
2018-04-16T10:29:06.866Z,4.70
2018-04-16T10:30:08.673Z,4.80
2018-04-16T10:31:07.260Z,4.80
2018-04-16T10:32:09.171Z,4.50
2018-04-16T10:33:09.237Z,5.00
2018-04-16T10:34:07.776Z,4.60
2018-04-16T10:35:08.003Z,4.70
2018-04-16T10:36:09.188Z,4.20
2018-04-16T10:37:10.153Z,5.00
2018-04-16T10:38:08.619Z,21.00
2018-04-16T10:39:10.975Z,4.70
2018-04-16T10:40:09.082Z,4.50
2018-04-16T10:41:11.144Z,5.00
2018-04-16T10:42:11.243Z,5.30
2018-04-16T10:43:11.235Z,4.90
2018-04-16T10:44:11.651Z,4.20
2018-04-16T10:45:17.645Z,4.20
2018-04-16T10:46:12.174Z,4.30
2018-04-16T10:47:11.430Z,4.40
2018-04-16T10:48:12.221Z,5.10
2018-04-16T10:49:10.825Z,5.00
2018-04-16T10:50:12.650Z,5.00
2018-04-16T10:51:11.242Z,5.10
2018-04-16T10:52:11.465Z,5.10
2018-04-16T10:53:14.649Z,5.20
2018-04-16T10:54:12.868Z,4.90
2018-04-16T10:55:13.647Z,4.50
2018-04-16T10:56:13.239Z,5.00
2018-04-16T10:57:16.211Z,5.30
2018-04-16T10:58:14.656Z,5.00
2018-04-16T10:59:28.643Z,4.60
2018-04-16T11:00:13.107Z,4.60
2018-04-16T11:01:13.365Z,4.70
2018-04-16T11:02:13.489Z,4.70
2018-04-16T11:03:13.706Z,4.30
2018-04-16T11:04:15.685Z,4.30
2018-04-16T11:05:14.178Z,4.40
2018-04-16T11:06:16.211Z,4.70
2018-04-16T11:07:14.521Z,4.10
2018-04-16T11:08:30.684Z,3.90
2018-04-16T11:09:35.918Z,4.20
2018-04-16T11:10:16.157Z,3.80
2018-04-16T11:11:19.103Z,4.40
2018-04-16T11:12:19.150Z,4.50
2018-04-16T11:13:19.101Z,4.40
2018-04-16T11:14:17.653Z,4.50
2018-04-16T11:15:16.012Z,4.10
2018-04-16T11:16:16.233Z,4.00
2018-04-16T11:17:21.102Z,4.10
2018-04-16T11:18:16.595Z,4.10
2018-04-16T11:19:16.820Z,3.40
2018-04-16T11:20:17.047Z,3.60
2018-04-16T11:21:18.113Z,3.50
2018-04-16T11:22:17.484Z,3.50
2018-04-16T11:23:17.715Z,3.50
2018-04-16T11:24:19.664Z,3.30
2018-04-16T11:25:19.976Z,3.60
2018-04-16T11:26:22.219Z,3.40
2018-04-16T11:27:18.384Z,3.60
2018-04-16T11:28:18.635Z,3.40
2018-04-16T11:29:20.651Z,3.60
2018-04-16T11:30:20.693Z,3.80
2018-04-16T11:31:19.203Z,4.10
2018-04-16T11:32:23.157Z,3.30
2018-04-16T11:33:23.156Z,3.50
2018-04-16T11:34:25.658Z,3.20
2018-04-16T11:35:21.652Z,3.40
2018-04-16T11:36:21.695Z,3.50
2018-04-16T11:37:20.293Z,3.40
2018-04-16T11:38:20.510Z,3.40
2018-04-16T11:39:22.692Z,3.40
2018-04-16T11:40:22.672Z,3.30
2018-04-16T11:41:21.151Z,3.70
2018-04-16T11:42:21.358Z,3.30
2018-04-16T11:43:23.152Z,3.80
2018-04-16T11:44:25.653Z,3.60
2018-04-16T11:45:23.000Z,3.60
2018-04-16T11:46:24.152Z,3.50
2018-04-16T11:47:22.371Z,3.30
2018-04-16T11:48:22.613Z,3.80
2018-04-16T11:49:26.700Z,4.30
2018-04-16T11:50:22.992Z,3.90
2018-04-16T11:51:23.220Z,3.60
2018-04-16T11:52:26.180Z,5.90
2018-04-16T11:53:23.631Z,4.00
2018-04-16T11:54:26.654Z,3.80
2018-04-16T11:55:23.995Z,4.10
2018-04-16T11:56:24.221Z,3.60
2018-04-16T11:57:24.443Z,3.50
2018-04-16T11:58:24.668Z,3.50
2018-04-16T11:59:24.892Z,3.80
2018-04-16T12:00:27.650Z,3.80
2018-04-16T12:01:25.283Z,3.90
2018-04-16T12:02:25.428Z,3.90
2018-04-16T12:03:25.614Z,3.90
2018-04-16T12:04:25.934Z,3.20
2018-04-16T12:05:27.675Z,3.70
2018-04-16T12:06:26.275Z,4.20
2018-04-16T12:07:28.159Z,3.60
2018-04-16T12:08:26.627Z,3.40
2018-04-16T12:09:28.664Z,3.20
2018-04-16T12:10:28.658Z,3.40
2018-04-16T12:11:27.262Z,3.30
2018-04-16T12:12:31.158Z,3.20
2018-04-16T12:13:29.173Z,3.00
2018-04-16T12:14:29.660Z,3.00
2018-04-16T12:15:31.656Z,2.80
2018-04-16T12:16:28.133Z,2.90
2018-04-16T12:17:29.365Z,3.00
2018-04-16T12:18:28.601Z,3.10
2018-04-16T12:19:30.661Z,3.00
2018-04-16T12:20:30.058Z,2.80
2018-04-16T12:21:30.672Z,2.70
2018-04-16T12:22:31.164Z,2.60
2018-04-16T12:23:37.157Z,2.60
2018-04-16T12:24:29.881Z,2.50
2018-04-16T12:25:34.624Z,2.70
2018-04-16T12:26:33.189Z,2.80
2018-04-16T12:27:30.398Z,3.00
2018-04-16T12:28:33.179Z,3.30
2018-04-16T12:29:32.655Z,5.10
2018-04-16T12:30:31.028Z,3.50
2018-04-16T12:31:31.138Z,3.20
2018-04-16T12:32:35.188Z,3.30
2018-04-16T12:33:31.553Z,3.00
2018-04-16T12:34:35.884Z,3.10
2018-04-16T12:35:33.686Z,3.00
2018-04-16T12:36:32.178Z,3.20
2018-04-16T12:37:32.389Z,3.30
2018-04-16T12:38:32.503Z,3.30
2018-04-16T12:39:32.751Z,3.00
2018-04-16T12:40:34.697Z,3.20
2018-04-16T12:41:36.659Z,2.90
2018-04-16T12:42:33.369Z,3.00
2018-04-16T12:43:35.165Z,3.30
2018-04-16T12:44:33.756Z,2.90
2018-04-16T12:45:34.005Z,3.00
2018-04-16T12:46:35.659Z,3.00
2018-04-16T12:47:34.253Z,4.70
2018-04-16T12:48:34.476Z,3.40
2018-04-16T12:49:37.661Z,2.70
2018-04-16T12:50:34.887Z,2.80
2018-04-16T12:51:35.094Z,2.70
2018-04-16T12:52:39.155Z,2.30
2018-04-16T12:53:35.495Z,2.90
2018-04-16T12:54:37.676Z,2.70
2018-04-16T12:55:38.707Z,2.60
2018-04-16T12:56:40.422Z,2.60
2018-04-16T12:57:36.288Z,3.20
2018-04-16T12:58:36.608Z,4.40
2018-04-16T12:59:38.780Z,3.30
2018-04-16T13:00:36.874Z,3.20
2018-04-16T13:01:37.103Z,3.00
2018-04-16T13:02:37.415Z,2.70
2018-04-16T13:03:39.185Z,2.70
2018-04-16T13:04:38.101Z,2.40
2018-04-16T13:05:40.781Z,2.50
2018-04-16T13:06:38.023Z,2.50
2018-04-16T13:07:39.657Z,2.50
2018-04-16T13:08:46.212Z,2.70
2018-04-16T13:09:40.173Z,2.50
2018-04-16T13:10:40.176Z,2.90
2018-04-16T13:11:39.786Z,2.50
2018-04-16T13:12:39.016Z,2.30
2018-04-16T13:13:40.241Z,3.00
2018-04-16T13:14:41.198Z,5.30
2018-04-16T13:15:43.192Z,2.90
2018-04-16T13:16:41.406Z,2.30
2018-04-16T13:17:41.662Z,2.40
2018-04-16T13:18:44.182Z,2.50
2018-04-16T13:19:44.214Z,2.20
2018-04-16T13:20:40.568Z,2.30
2018-04-16T13:21:41.798Z,2.20